»·PEaware :: VRD650 KSLC-KEGE

VRD650 :: KSLC-KEGE

FLIGHT INFORMATION

Flight Status: Arrived
Operator:
Virgin America
More flights by this operator :: More flights under this callsign
Pilot: Vimal Ana (13781)
Aircraft: AIRBUS A320
(A320)
More flights by this aircraft type
Origin: KSLC Salt Lake City Intl
United States
Destination: KEGE Eagle Co Regl
United States
More flights between these airports :: More routes between these airports
Route: +LEETZ5 EKR RLG
File this flight plan on PilotEdge
Remarks:
Altitude:
(Current/Filed)
35,000ft
Speed:
(Current/Filed)
400kts
Departed: 11-Jan-17 09:11 AM
Arrived: 11-Jan-17 10:10 AM
Distance/Time
Traveled:
242nm/0:59
Distance/Time
To Go:
Arrived

Flight Plot

Page will automatically refresh every two minutes.

Flight plan parsing failed; only flown route is shown


Map Options




Map Legend


Flown Route
Filed Route
Departure Airport
Arrival Airport
Navaid (VOR, NDB)
Fix

Horizontal Profiles

Position Reports

Time Latitude Longitude Heading Altitude Ground
Speed
11-Jan-17 08:47 40.788200 -111.981995 88 4241ft 0kts
11-Jan-17 08:48 40.788200 -111.981995 88 4241ft 0kts
11-Jan-17 08:49 40.788200 -111.981995 88 4241ft 0kts
11-Jan-17 08:50 40.788200 -111.981995 88 4241ft 0kts
11-Jan-17 08:53 40.788200 -111.981995 88 4241ft 0kts
11-Jan-17 08:54 40.788200 -111.981995 88 4241ft 0kts
11-Jan-17 08:55 40.788200 -111.981995 88 4241ft 0kts
11-Jan-17 08:56 40.788200 -111.981995 88 4241ft 0kts
11-Jan-17 08:57 40.788200 -111.981995 88 4241ft 0kts
11-Jan-17 08:58 40.788200 -111.981995 88 4241ft 0kts
11-Jan-17 08:59 40.788200 -111.981995 88 4241ft 0kts
11-Jan-17 09:00 40.788116 -111.982698 57 4241ft 2kts
11-Jan-17 09:01 40.787960 -111.982891 11 4241ft 0kts
11-Jan-17 09:02 40.787962 -111.982890 11 4241ft 0kts
11-Jan-17 09:03 40.787964 -111.982890 11 4241ft 0kts
11-Jan-17 09:04 40.787966 -111.982889 11 4241ft 0kts
11-Jan-17 09:05 40.788785 -111.982686 5 4241ft 10kts
11-Jan-17 09:06 40.791701 -111.982225 85 4241ft 14kts
11-Jan-17 09:07 40.795352 -111.978661 356 4241ft 26kts
11-Jan-17 09:08 40.801511 -111.979371 357 4241ft 23kts
11-Jan-17 09:09 40.807382 -111.978333 86 4241ft 15kts
11-Jan-17 09:10 40.806701 -111.976742 172 4241ft 1kts
11-Jan-17 09:11 40.798463 -111.975772 174 4241ft 123kts
11-Jan-17 09:12 40.762098 -112.006023 245 6107ft 188kts
11-Jan-17 09:13 40.747053 -112.069062 265 7799ft 238kts
11-Jan-17 09:14 40.790098 -112.136900 315 11415ft 257kts
11-Jan-17 09:15 40.853768 -112.200415 315 13885ft 305kts
11-Jan-17 09:16 40.937300 -112.238265 345 16823ft 347kts
11-Jan-17 09:17 41.020108 -112.176424 71 19470ft 394kts
11-Jan-17 09:18 41.007398 -112.010710 116 21732ft 401kts
11-Jan-17 09:19 40.967204 -111.900133 129 23478ft 401kts
11-Jan-17 09:20 40.910078 -111.772610 129 25496ft 409kts
11-Jan-17 09:21 40.843930 -111.616140 122 27332ft 433kts
11-Jan-17 09:22 40.811120 -111.483273 113 27625ft 477kts
11-Jan-17 09:23 40.765869 -111.279487 112 28276ft 512kts
11-Jan-17 09:24 40.731673 -111.127657 112 29199ft 525kts
11-Jan-17 09:25 40.689779 -110.942259 113 30522ft 531kts
11-Jan-17 09:26 40.647194 -110.755443 113 31834ft 532kts
11-Jan-17 09:27 40.604472 -110.569603 113 33043ft 533kts
11-Jan-17 09:28 40.561208 -110.382587 113 34191ft 533kts
11-Jan-17 09:29 40.513510 -110.164186 110 34690ft 535kts
11-Jan-17 09:30 40.484027 -110.006854 110 34693ft 534kts
11-Jan-17 09:31 40.447985 -109.816406 110 34695ft 537kts
11-Jan-17 09:32 40.405483 -109.595124 111 34698ft 536kts
11-Jan-17 09:33 40.374862 -109.437361 111 34698ft 536kts
11-Jan-17 09:34 40.337739 -109.247836 111 34696ft 537kts
11-Jan-17 09:35 40.300236 -109.058216 111 34691ft 539kts
11-Jan-17 09:36 40.262268 -108.868040 111 34690ft 542kts
11-Jan-17 09:37 40.223810 -108.677174 111 34688ft 545kts
11-Jan-17 09:38 40.184826 -108.485414 111 34687ft 547kts
11-Jan-17 09:39 40.145304 -108.293006 111 34683ft 550kts
11-Jan-17 09:40 40.105354 -108.100185 112 34679ft 551kts
11-Jan-17 09:41 40.065795 -107.907055 106 34676ft 556kts
11-Jan-17 09:42 40.029811 -107.713137 111 33975ft 544kts
11-Jan-17 09:43 40.043155 -107.516715 71 32975ft 561kts
11-Jan-17 09:44 40.092418 -107.323262 70 31972ft 559kts
11-Jan-17 09:45 40.133206 -107.129505 76 30975ft 550kts
11-Jan-17 09:46 40.137602 -106.931103 102 29207ft 550kts
11-Jan-17 09:47 40.137131 -106.733528 66 26387ft 541kts
11-Jan-17 09:48 40.230500 -106.600947 30 22997ft 473kts
11-Jan-17 09:49 40.329994 -106.499732 30 19611ft 451kts
11-Jan-17 09:50 40.407030 -106.381818 75 16203ft 430kts
11-Jan-17 09:51 40.365864 -106.265632 172 14929ft 318kts
11-Jan-17 09:52 40.293947 -106.290504 210 14882ft 262kts
11-Jan-17 09:53 40.229980 -106.323487 211 14069ft 238kts
11-Jan-17 09:54 40.166171 -106.356996 211 13944ft 246kts
11-Jan-17 09:55 40.106828 -106.387858 213 13953ft 204kts
11-Jan-17 09:56 40.055128 -106.415056 213 13948ft 199kts
11-Jan-17 09:57 40.003465 -106.441711 210 13949ft 202kts
11-Jan-17 09:58 39.950239 -106.464502 210 13951ft 201kts
11-Jan-17 09:59 39.896988 -106.487022 210 13956ft 201kts
11-Jan-17 10:00 39.843617 -106.509512 209 13766ft 200kts
11-Jan-17 10:01 39.790370 -106.531887 209 13619ft 204kts
11-Jan-17 10:02 39.736444 -106.554468 209 12881ft 197kts
11-Jan-17 10:03 39.693751 -106.587175 254 12640ft 172kts
11-Jan-17 10:04 39.682786 -106.646601 256 11445ft 176kts
11-Jan-17 10:05 39.672412 -106.711483 255 10295ft 188kts
11-Jan-17 10:06 39.663491 -106.769197 255 8989ft 151kts
11-Jan-17 10:07 39.655428 -106.819715 256 7708ft 139kts
11-Jan-17 10:08 39.647734 -106.868557 261 7005ft 138kts
11-Jan-17 10:09 39.642678 -106.915960 263 6529ft 98kts
11-Jan-17 10:10 39.640857 -106.927942 167 6529ft 0kts
11-Jan-17 10:11 39.640445 -106.927022 83 6529ft 11kts
11-Jan-17 10:12 39.641278 -106.919447 81 6529ft 30kts
11-Jan-17 10:13 39.640555 -106.915448 171 6529ft 0kts

Navigation Log

Ident Type Via Name
Flight plan parsing failed, navigation log unavailable